Latest Weather Observations for Cessnock Airport

IDN60801

Issued at 2:33 pm EST Monday 31 August 2015 (issued every 30 minutes, with the page automatically refreshed every 10 minutes)

About weather observations | Map of weather stations | Latest weather observations for NSW | Other Formats
Station Details ID: 061260 Name: CESSNOCK AIRPORT AWS Lat: -32.79 Lon: 151.34 Height: 61.0 m
Data from the previous 72 hours. | See also: Recent months at Cessnock Airport
Date/Time
EST
Temp
°C
App
Temp
°C
Dew
Point
Rel
Hum
%
Delta-T
°C
Wind Press
QNH
hPa
Press
MSL
hPa
Rain
since 9 am
mm
Dir
 
Spd
km/h
Gust
km/h
Spd
kts
Gust
kts
31/02:30pm 18.8 15.6 6.9 46 6.0 NW 13 20 7 11 1013.4 1013.4 0.0
31/02:00pm 18.1 15.6 6.6 47 5.7 WSW 9 17 5 9 1013.6 1013.6 0.0
31/01:30pm 17.0 15.1 7.4 53 4.8 N 7 13 4 7 1014.0 1014.0 0.0
31/01:00pm 17.3 15.2 6.8 50 5.2 NNE 7 15 4 8 1014.3 1014.3 0.0
31/12:30pm 16.4 14.3 6.5 52 4.9 N 7 15 4 8 1014.7 1014.7 0.0
31/12:00pm 16.5 14.6 7.7 56 4.4 W 7 17 4 9 1015.1 1015.1 0.0
31/11:30am 17.0 14.4 7.6 54 4.7 NW 11 19 6 10 1015.7 1015.7 0.0
31/11:00am 16.9 14.2 7.5 54 4.7 W 11 19 6 10 1016.1 1016.1 0.0
31/10:30am 15.8 13.7 6.8 55 4.4 W 7 11 4 6 1016.4 1016.4 0.0
31/10:00am 14.9 12.8 6.5 57 4.1 W 7 15 4 8 1016.8 1016.9 0.0
31/09:30am 14.6 12.7 6.9 60 3.8 S 6 11 3 6 1017.0 1017.1 0.0
31/09:00am 14.3 13.2 8.3 67 3.0 WNW 4 9 2 5 1017.2 1017.3 0.0
31/08:30am 12.6 10.9 8.3 75 2.1 NNW 7 11 4 6 1017.1 1017.2 0.0
31/08:00am 11.6 10.0 8.6 82 1.5 NW 7 11 4 6 1017.1 1017.2 0.0
31/07:30am 10.4 8.6 8.0 85 1.2 N 7 11 4 6 1016.9 1017.0 0.0
31/07:00am 8.5 6.6 7.6 94 0.4 NW 7 15 4 8 1016.6 1016.7 0.0
31/06:30am 7.0 5.8 6.6 97 0.2 NNE 2 7 1 4 1016.4 1016.4 0.0
31/06:00am 6.6 5.7 5.9 95 0.3 CALM 0 0 0 0 1016.2 1016.2 0.0
31/05:30am 6.6 5.6 5.7 94 0.4 CALM 0 0 0 0 1016.2 1016.2 0.0
31/05:00am 6.5 5.0 5.1 91 0.6 N 2 6 1 3 1016.2 1016.2 0.0
31/04:30am 8.0 6.1 6.6 91 0.6 N 6 9 3 5 1016.2 1016.2 0.0
31/04:00am 8.8 7.1 7.6 92 0.6 NNE 6 7 3 4 1016.3 1016.3 0.0
31/03:30am 8.8 7.1 7.7 93 0.5 N 6 9 3 5 1016.3 1016.3 0.0
31/03:00am 8.6 8.1 7.7 94 0.4 CALM 0 7 0 4 1016.4 1016.4 0.0
31/02:30am 8.2 6.8 7.3 94 0.4 NNE 4 7 2 4 1016.8 1016.9 0.0
31/02:00am 7.8 5.9 7.4 97 0.2 NNE 7 11 4 6 1017.1 1017.2 0.0
31/01:30am 7.1 5.2 6.5 96 0.3 NNE 6 7 3 4 1017.5 1017.6 0.0
31/01:00am 6.8 5.9 6.2 96 0.3 CALM 0 0 0 0 1017.7 1017.8 0.0
31/12:30am 6.8 5.9 5.9 94 0.4 CALM 0 0 0 0 1018.0 1018.1 0.0
31/12:00am 7.3 6.4 6.1 92 0.5 CALM 0 0 0 0 1017.7 1017.8 0.0
 
Date/Time
EST
Temp
°C
App
Temp
°C
Dew
Point
Rel
Hum
%
Delta-T
°C
Wind Press
QNH
hPa
Press
MSL
hPa
Rain
since 9 am
mm
Dir
 
Spd
km/h
Gust
km/h
Spd
kts
Gust
kts
30/11:30pm 8.3 7.6 7.1 92 0.6 CALM 0 0 0 0 1017.8 1017.9 0.0
30/11:00pm 8.6 8.0 7.4 92 0.6 CALM 0 0 0 0 1017.9 1018.0 0.0
30/10:30pm 8.5 7.9 7.3 92 0.6 CALM 0 0 0 0 1018.0 1018.1 0.0
30/10:00pm 8.4 7.8 7.3 93 0.5 CALM 0 0 0 0 1018.2 1018.3 0.0
30/09:30pm 8.0 7.3 7.1 94 0.4 CALM 0 0 0 0 1018.2 1018.3 0.0
30/09:00pm 7.5 6.6 6.1 91 0.6 CALM 0 0 0 0 1018.3 1018.4 0.0
30/08:30pm 7.9 7.0 6.2 89 0.8 CALM 0 0 0 0 1018.2 1018.3 0.0
30/08:00pm 8.8 7.9 6.1 83 1.2 CALM 0 6 0 3 1018.1 1018.2 0.0
30/07:30pm 9.1 6.6 6.4 83 1.3 SSW 9 11 5 6 1017.8 1017.9 0.0
30/07:00pm 11.1 8.3 7.0 76 2.0 S 11 13 6 7 1017.5 1017.6 0.0
30/06:30pm 11.8 9.3 6.7 71 2.4 SSE 9 11 5 6 1017.3 1017.4 0.0
30/06:00pm 13.3 10.9 7.1 66 3.0 SE 9 13 5 7 1017.1 1017.2 0.0
30/05:30pm 14.3 11.8 6.6 60 3.7 ESE 9 13 5 7 1016.8 1016.9 0.0
30/05:00pm 15.8 12.6 6.8 55 4.4 ESE 13 20 7 11 1016.5 1016.6 0.0
30/04:30pm 17.1 13.0 4.1 42 6.1 SE 15 20 8 11 1016.2 1016.2 0.0
30/04:00pm 18.1 14.0 2.0 34 7.3 SW 13 20 7 11 1016.1 1016.1 0.0
30/03:30pm 17.8 14.6 3.3 38 6.7 SSW 9 13 5 7 1016.1 1016.1 0.0
30/03:00pm 18.3 15.1 3.0 36 7.1 W 9 17 5 9 1016.3 1016.3 0.0
30/02:30pm 18.0 14.6 1.9 34 7.3 WSW 9 19 5 10 1016.4 1016.4 0.0
30/02:00pm 18.1 15.2 2.4 35 7.2 W 7 13 4 7 1016.6 1016.7 0.0
30/01:30pm 18.0 15.2 1.9 34 7.3 ENE 6 15 3 8 1016.9 1017.0 0.0
30/01:00pm 17.5 14.7 3.0 38 6.7 N 7 11 4 6 1017.3 1017.4 0.0
30/12:30pm 17.1 14.7 4.1 42 6.1 NNW 6 11 3 6 1017.7 1017.8 0.0
30/12:00pm 16.5 14.1 4.5 45 5.6 SE 6 17 3 9 1018.2 1018.3 0.0
30/11:30am 15.9 13.3 3.4 43 5.7 NW 6 11 3 6 1018.6 1018.7 0.0
30/11:00am 16.4 14.3 6.0 50 5.0 NNE 6 9 3 5 1019.1 1019.2 0.0
30/10:30am 14.5 11.1 3.9 49 4.9 NNW 11 17 6 9 1019.6 1019.7 0.0
30/10:00am 13.8 10.6 4.9 55 4.1 NNW 11 15 6 8 1019.8 1019.9 0.0
30/09:30am 13.7 10.4 6.3 61 3.5 NNW 13 17 7 9 1019.9 1020.0 0.0
30/09:00am 11.4 8.1 4.8 64 3.0 NNW 11 17 6 9 1020.0 1020.1 0.0
30/08:30am 9.9 6.6 4.5 69 2.4 NNW 11 15 6 8 1020.0 1020.1 0.0
30/08:00am 8.5 5.6 4.7 77 1.7 N 9 13 5 7 1020.1 1020.2 0.0
30/07:30am 5.8 4.5 4.3 90 0.6 CALM 0 0 0 0 1019.9 1020.0 0.0
30/07:00am 2.5 0.8 2.1 97 0.2 CALM 0 0 0 0 1019.7 1019.8 0.0
30/06:30am 1.4 -0.4 1.0 97 0.2 CALM 0 0 0 0 1019.3 1019.4 0.0
30/06:00am 1.7 -0.1 1.1 96 0.2 CALM 0 0 0 0 1019.2 1019.3 0.0
30/05:30am 2.5 0.1 1.9 96 0.2 N 4 9 2 5 1019.0 1019.1 0.0
30/05:00am 2.4 0.7 1.8 96 0.2 CALM 0 0 0 0 1019.0 1019.1 0.0
30/04:30am 2.5 0.4 1.6 94 0.3 N 2 7 1 4 1018.9 1019.0 0.0
30/04:00am 3.2 1.6 2.2 93 0.4 CALM 0 0 0 0 1018.9 1019.0 0.0
30/03:30am 3.4 1.7 2.1 91 0.5 CALM 0 0 0 0 1018.9 1019.0 0.0
30/03:00am 4.8 2.2 3.1 89 0.7 NNE 6 9 3 5 1018.9 1019.0 0.0
30/02:30am 5.5 2.8 3.7 88 0.8 NNE 7 9 4 5 1019.1 1019.2 0.0
30/02:00am 5.7 4.1 2.7 81 1.2 CALM 0 0 0 0 1019.3 1019.4 0.0
30/01:30am 7.6 4.9 2.9 72 2.0 NW 6 9 3 5 1019.7 1019.8 0.0
30/01:00am 8.8 6.1 2.4 64 2.7 WNW 6 11 3 6 1019.9 1020.0 0.0
30/12:30am 10.4 6.0 2.7 59 3.3 WNW 15 17 8 9 1020.0 1020.1 0.0
30/12:00am 10.8 7.9 2.6 57 3.5 W 7 13 4 7 1020.1 1020.2 0.0
 
Date/Time
EST
Temp
°C
App
Temp
°C
Dew
Point
Rel
Hum
%
Delta-T
°C
Wind Press
QNH
hPa
Press
MSL
hPa
Rain
since 9 am
mm
Dir
 
Spd
km/h
Gust
km/h
Spd
kts
Gust
kts
29/11:30pm 10.4 7.6 3.0 60 3.2 NW 7 9 4 5 1020.1 1020.2 0.0
29/11:00pm 10.8 7.9 2.6 57 3.5 SW 7 13 4 7 1020.1 1020.2 0.0
29/10:30pm 9.1 6.6 3.9 70 2.3 WSW 6 15 3 8 1019.9 1020.0 0.0
29/10:00pm 10.4 8.0 4.5 67 2.6 W 6 9 3 5 1020.1 1020.2 0.0
29/09:30pm 10.4 7.6 5.0 69 2.5 W 9 11 5 6 1020.1 1020.2 0.0
29/09:00pm 12.6 9.8 5.3 61 3.4 W 9 11 5 6 1020.2 1020.3 0.0
29/08:30pm 13.5 10.1 5.7 59 3.7 NW 13 20 7 11 1019.9 1020.0 0.0
29/08:00pm 14.0 10.2 5.6 57 4.0 NW 15 26 8 14 1019.5 1019.6 0.0
29/07:30pm 14.3 10.1 5.7 56 4.1 NW 17 22 9 12 1019.2 1019.3 0.0
29/07:00pm 14.1 10.7 5.7 57 4.0 NNW 13 20 7 11 1018.8 1018.9 0.0
29/06:30pm 14.8 11.3 5.6 54 4.4 NNW 13 19 7 10 1018.3 1018.4 0.0
29/06:00pm 15.4 11.6 5.9 53 4.6 NW 15 22 8 12 1018.1 1018.2 0.0
29/05:30pm 16.5 12.7 5.8 49 5.2 NW 15 24 8 13 1017.7 1017.8 0.0
29/05:00pm 16.9 13.5 5.8 48 5.4 NNW 13 20 7 11 1017.4 1017.5 0.0
29/04:30pm 17.7 13.5 5.9 46 5.8 NNW 17 24 9 13 1017.3 1017.4 0.0
29/04:00pm 17.9 13.3 5.8 45 5.9 NW 19 26 10 14 1017.4 1017.5 0.0
29/03:30pm 18.5 13.9 5.7 43 6.3 NNW 19 30 10 16 1017.4 1017.5 0.0
29/03:00pm 19.0 15.0 6.8 45 6.1 NNW 17 24 9 13 1017.8 1017.9 0.0
29/02:30pm 18.1 14.0 6.3 46 5.8 NNW 17 24 9 13 1018.0 1018.1 0.0
29/02:00pm 18.7 14.5 7.5 48 5.7 NW 19 26 10 14 1018.3 1018.4 0.0
29/01:30pm 19.1 15.8 8.1 49 5.7 NW 15 24 8 13 1018.8 1018.9 0.0
29/01:00pm 18.0 13.9 7.7 51 5.2 NW 19 32 10 17 1019.3 1019.4 0.0
29/12:30pm 17.5 13.3 5.8 46 5.7 NW 17 26 9 14 1019.8 1019.9 0.0
29/12:00pm 17.0 12.7 7.1 52 4.9 NW 19 28 10 15 1020.2 1020.3 0.0
29/11:30am 16.4 12.5 7.1 54 4.6 NW 17 30 9 16 1020.9 1021.0 0.0
29/11:00am 15.7 11.4 7.0 56 4.3 NNW 19 30 10 16 1021.6 1021.7 0.0
29/10:30am 15.0 10.2 7.5 61 3.7 NW 22 32 12 17 1022.0 1022.1 0.0
29/10:00am 13.7 9.7 6.8 63 3.3 NNW 17 28 9 15 1022.2 1022.3 0.0
29/09:30am 13.3 10.3 7.7 69 2.8 NNW 13 20 7 11 1022.8 1022.8 0.0
29/09:00am 12.0 8.6 7.5 74 2.2 NNW 15 20 8 11 1022.9 1022.9 0.0
29/08:30am 10.9 8.7 7.8 81 1.5 NW 9 15 5 8 1022.8 1022.8 0.0
29/08:00am 9.1 7.0 6.7 85 1.1 NW 7 13 4 7 1023.0 1023.0 0.0
29/07:30am 6.7 5.4 6.1 96 0.3 SE 2 7 1 4 1022.8 1022.8 0.0
29/07:00am 3.9 2.5 3.6 98 0.1 CALM 0 0 0 0 1022.7 1022.7 0.0
29/06:30am 3.0 1.4 2.7 98 0.1 CALM 0 0 0 0 1022.6 1022.6 0.0
29/06:00am 3.0 1.4 2.6 97 0.2 CALM 0 0 0 0 1022.6 1022.6 0.0
29/05:30am 2.8 0.8 2.4 97 0.2 SW 2 6 1 3 1022.3 1022.4 0.0
29/05:00am 3.3 1.0 2.7 96 0.2 WSW 4 7 2 4 1022.1 1022.2 0.0
29/04:30am 4.0 2.6 3.4 96 0.2 CALM 0 0 0 0 1021.9 1022.0 0.0
29/04:00am 4.5 3.2 3.9 96 0.3 CALM 0 0 0 0 1021.8 1021.9 0.0
29/03:30am 5.3 4.1 4.4 94 0.4 CALM 0 0 0 0 1021.7 1021.8 0.0
29/03:00am 6.2 4.6 4.5 89 0.7 SSW 2 6 1 3 1021.7 1021.8 0.0
29/02:30am 7.9 5.4 5.0 82 1.3 WSW 7 11 4 6 1021.9 1022.0 0.0
29/02:00am 9.8 5.7 6.2 78 1.7 NW 17 22 9 12 1022.1 1022.2 0.0
29/01:30am 9.3 5.5 6.0 80 1.5 NW 15 20 8 11 1022.4 1022.5 0.0
29/01:00am 8.8 6.6 5.5 80 1.5 NW 6 9 3 5 1022.7 1022.7 0.0
29/12:30am 9.6 7.0 6.0 78 1.7 NW 9 13 5 7 1022.8 1022.8 0.0
29/12:00am 9.9 6.9 5.9 76 1.8 NW 11 15 6 8 1022.7 1022.7 0.0
 
Date/Time
EST
Temp
°C
App
Temp
°C
Dew
Point
Rel
Hum
%
Delta-T
°C
Wind Press
QNH
hPa
Press
MSL
hPa
Rain
since 9 am
mm
Dir
 
Spd
km/h
Gust
km/h
Spd
kts
Gust
kts
28/11:30pm 10.1 7.5 5.9 75 1.9 NW 9 13 5 7 1022.9 1022.9 0.0
28/11:00pm 10.7 7.3 6.1 73 2.1 NW 13 19 7 10 1022.8 1022.8 0.0
28/10:30pm 10.9 7.9 6.1 72 2.2 NNW 11 17 6 9 1023.0 1023.0 0.0
28/10:00pm 11.5 8.9 6.0 69 2.6 NW 9 15 5 8 1022.9 1022.9 0.0
28/09:30pm 12.4 9.1 6.5 67 2.8 NNW 13 17 7 9 1022.8 1022.8 0.0
28/09:00pm 12.7 10.6 6.5 66 2.9 NNW 7 9 4 5 1022.7 1022.7 0.0
28/08:30pm 13.3 10.9 6.9 65 3.1 N 9 11 5 6 1022.2 1022.3 0.0
28/08:00pm 13.4 10.5 6.5 63 3.3 NNW 11 13 6 7 1021.7 1021.8 0.0
28/07:30pm 13.9 11.3 6.3 60 3.7 NW 9 15 5 8 1021.4 1021.5 0.0
28/07:00pm 14.2 10.9 6.3 59 3.8 NW 13 20 7 11 1021.1 1021.2 0.0
28/06:30pm 14.0 11.1 6.4 60 3.7 NW 11 17 6 9 1020.8 1020.9 0.0
28/06:00pm 14.7 12.1 6.3 57 4.0 NW 9 15 5 8 1020.3 1020.4 0.0
28/05:30pm 15.5 12.5 6.2 54 4.5 NW 11 15 6 8 1020.0 1020.1 0.0
28/05:00pm 17.0 13.7 6.2 49 5.3 NW 13 20 7 11 1019.8 1019.9 0.0
28/04:30pm 17.3 14.0 6.2 48 5.5 NW 13 20 7 11 1019.6 1019.7 0.0
28/04:00pm 17.3 14.0 6.5 49 5.3 NNW 13 19 7 10 1019.4 1019.5 0.0
28/03:30pm 17.8 14.3 5.4 44 6.0 WNW 13 24 7 13 1019.2 1019.3 0.0
28/03:00pm 18.0 14.7 6.2 46 5.8 WNW 13 20 7 11 1019.0 1019.1 0.0

Other Formats:

Comma delimited format used in spreadsheet applications
http://www.bom.gov.au/fwo/IDN60801/IDN60801.95771.axf

JavaScript Object Notation format (JSON) in row-major order
http://www.bom.gov.au/fwo/IDN60801/IDN60801.95771.json